Time;durP1;ratioP1;P1;durP2;ratioP2;P2;SDS_P1;SDS_P2;PMS_P1;PMS_P2;Temp;Humidity;BMP_temperature;BMP_pressure;BME280_temperature;BME280_humidity;BME280_pressure;Samples;Min_cycle;Max_cycle;Signal;HPM_P1;HPM_P2
2021/12/21 00:00:45;;;;;;;40.73;17.20;;;0.10;99.90;;;;;;5075742;28;20199;-65
2021/12/21 00:03:14;;;;;;;41.23;18.33;;;0.10;99.90;;;;;;5084294;28;20234;-64
2021/12/21 00:05:43;;;;;;;43.10;16.27;;;0.00;99.90;;;;;;5080469;28;20262;-64
2021/12/21 00:08:13;;;;;;;41.53;16.23;;;0.00;99.90;;;;;;5079140;28;20215;-64
2021/12/21 00:10:46;;;;;;;40.87;17.17;;;0.00;99.90;;;;;;5082542;28;20203;-64
2021/12/21 00:13:39;;;;;;;41.87;16.87;;;-0.10;99.90;;;;;;5083839;28;20191;-64
2021/12/21 00:16:17;;;;;;;40.50;17.60;;;-0.20;99.90;;;;;;5082813;28;20609;-64
2021/12/21 00:19:04;;;;;;;42.23;16.53;;;-0.20;99.90;;;;;;5077317;28;20227;-64
2021/12/21 00:21:37;;;;;;;41.07;16.87;;;-0.30;99.90;;;;;;5080615;28;20279;-64
2021/12/21 00:24:12;;;;;;;47.50;17.40;;;-0.30;99.90;;;;;;5078748;28;20223;-64
2021/12/21 00:26:41;;;;;;;44.03;16.70;;;-0.40;99.90;;;;;;5083784;28;20191;-63
2021/12/21 00:29:11;;;;;;;43.93;17.53;;;-0.40;99.90;;;;;;5084831;28;20298;-64
2021/12/21 00:31:40;;;;;;;39.60;18.03;;;-0.40;99.90;;;;;;5076918;28;20206;-64
2021/12/21 00:34:09;;;;;;;43.87;16.63;;;-0.50;99.90;;;;;;5082557;28;20202;-64
2021/12/21 00:36:38;;;;;;;38.40;18.07;;;-0.50;99.90;;;;;;5080656;28;20199;-64
2021/12/21 00:39:12;;;;;;;40.67;17.30;;;-0.60;99.90;;;;;;5075295;28;20279;-64
2021/12/21 00:41:41;;;;;;;50.17;20.40;;;-0.60;99.90;;;;;;5084763;28;20195;-64
2021/12/21 00:44:11;;;;;;;45.17;18.63;;;-0.70;99.90;;;;;;5084233;28;20203;-65
2021/12/21 00:46:39;;;;;;;52.13;21.47;;;-0.70;99.90;;;;;;5077826;28;20207;-64
2021/12/21 00:49:16;;;;;;;53.80;21.20;;;-0.70;99.90;;;;;;5075489;28;20219;-64
2021/12/21 00:51:46;;;;;;;62.47;21.30;;;-0.80;99.90;;;;;;5081893;28;20204;-64
2021/12/21 00:54:17;;;;;;;49.23;20.37;;;-0.80;99.90;;;;;;5083705;28;20196;-64
2021/12/21 00:56:45;;;;;;;54.93;20.77;;;-0.80;99.90;;;;;;5085218;28;20682;-64
2021/12/21 00:59:15;;;;;;;53.97;20.93;;;-0.80;99.90;;;;;;5079743;28;20179;-64
2021/12/21 01:01:44;;;;;;;50.83;21.30;;;-0.80;99.90;;;;;;5079871;28;20200;-64
2021/12/21 01:04:20;;;;;;;59.40;21.53;;;-0.90;99.90;;;;;;5079819;28;20192;-64
2021/12/21 01:07:01;;;;;;;59.90;20.33;;;-0.90;99.90;;;;;;5089999;28;20206;-64
2021/12/21 01:09:57;;;;;;;54.63;20.30;;;-0.90;99.90;;;;;;5078225;28;20260;-64
2021/12/21 01:12:40;;;;;;;55.77;21.33;;;-0.90;99.90;;;;;;5086042;28;20207;-64
2021/12/21 01:15:20;;;;;;;66.00;23.00;;;-0.90;99.90;;;;;;5075289;28;20228;-64
2021/12/21 01:17:56;;;;;;;68.23;24.50;;;-1.00;99.90;;;;;;5084041;28;20212;-64
2021/12/21 01:20:30;;;;;;;49.63;21.60;;;-1.00;99.90;;;;;;5080531;28;20191;-64
2021/12/21 01:23:23;;;;;;;49.43;20.20;;;-1.00;99.90;;;;;;5074863;28;20202;-64
2021/12/21 01:25:58;;;;;;;48.63;20.37;;;-1.00;99.90;;;;;;5076485;28;20196;-64
2021/12/21 01:28:36;;;;;;;54.17;20.47;;;-1.10;99.90;;;;;;5063446;28;20244;-64
2021/12/21 01:31:18;;;;;;;43.30;20.03;;;-1.10;99.90;;;;;;5078478;28;20192;-64
2021/12/21 01:33:59;;;;;;;48.67;20.73;;;-1.10;99.90;;;;;;5082635;28;20285;-64
2021/12/21 01:36:36;;;;;;;57.13;21.07;;;-1.10;99.90;;;;;;5083292;28;20213;-64
2021/12/21 01:39:15;;;;;;;53.33;20.97;;;-1.20;99.90;;;;;;5058909;28;20251;-64
2021/12/21 01:41:52;;;;;;;56.83;19.93;;;-1.20;99.90;;;;;;5060374;28;20262;-64
2021/12/21 01:44:39;;;;;;;69.93;22.43;;;-1.20;99.90;;;;;;5086834;28;20217;-64
2021/12/21 01:49:56;;;;;;;53.50;20.33;;;-1.30;99.90;;;;;;5080044;28;20293;-64
2021/12/21 01:52:26;;;;;;;52.80;20.67;;;-1.30;99.90;;;;;;5059176;28;20188;-64
2021/12/21 01:54:56;;;;;;;64.07;21.10;;;-1.30;99.90;;;;;;5075840;28;20231;-64
2021/12/21 01:57:25;;;;;;;43.73;18.93;;;-1.30;99.90;;;;;;5064344;28;20191;-64
2021/12/21 01:59:53;;;;;;;57.03;21.83;;;-1.30;99.90;;;;;;5080693;28;20200;-64
2021/12/21 02:02:23;;;;;;;52.90;20.37;;;-1.30;99.90;;;;;;5060577;28;20199;-64
2021/12/21 02:04:52;;;;;;;55.43;21.33;;;-1.30;99.90;;;;;;5062893;28;20204;-64
2021/12/21 02:07:21;;;;;;;53.60;22.50;;;-1.40;99.90;;;;;;5076226;28;20207;-63
2021/12/21 02:09:50;;;;;;;59.73;20.97;;;-1.40;99.90;;;;;;5085530;28;20213;-64
2021/12/21 02:12:20;;;;;;;60.63;21.20;;;-1.40;99.90;;;;;;5079985;28;20191;-64
2021/12/21 02:14:55;;;;;;;69.60;21.40;;;-1.40;99.90;;;;;;5079452;28;20253;-64
2021/12/21 02:17:55;;;;;;;60.87;21.67;;;-1.40;99.90;;;;;;5080366;28;20948;-64
2021/12/21 02:20:39;;;;;;;55.17;21.07;;;-1.50;99.90;;;;;;5081331;28;20197;-64
2021/12/21 02:23:12;;;;;;;60.50;21.43;;;-1.50;99.90;;;;;;5082943;28;21837;-64
2021/12/21 02:26:02;;;;;;;61.17;21.53;;;-1.60;99.90;;;;;;5054954;28;20194;-64
2021/12/21 02:31:19;;;;;;;57.43;19.27;;;-1.60;99.90;;;;;;5058607;28;20221;-64
2021/12/21 02:33:48;;;;;;;51.87;21.17;;;-1.60;99.90;;;;;;5088035;28;20200;-64
2021/12/21 02:36:18;;;;;;;66.43;21.33;;;-1.70;99.90;;;;;;5080867;28;20191;-64
2021/12/21 02:38:46;;;;;;;53.23;21.27;;;-1.70;99.90;;;;;;5079955;28;20211;-64
2021/12/21 02:41:15;;;;;;;54.67;21.03;;;-1.70;99.90;;;;;;5080457;28;20206;-62
2021/12/21 02:43:44;;;;;;;58.40;21.43;;;-1.70;99.90;;;;;;5079187;28;20200;-64
2021/12/21 02:46:14;;;;;;;55.87;21.87;;;-1.70;99.90;;;;;;5075011;28;20188;-64
2021/12/21 02:48:44;;;;;;;63.07;22.23;;;-1.80;99.90;;;;;;5079737;28;20214;-64
2021/12/21 02:51:28;;;;;;;71.20;21.60;;;-1.80;99.90;;;;;;5076700;28;20241;-64
2021/12/21 02:53:56;;;;;;;59.47;22.30;;;-1.70;99.90;;;;;;5069027;28;20184;-64
2021/12/21 02:56:25;;;;;;;56.90;20.80;;;-1.80;99.90;;;;;;5058387;28;20199;-64
2021/12/21 02:58:53;;;;;;;62.70;22.20;;;-1.80;99.90;;;;;;5074488;28;20562;-64
2021/12/21 03:01:23;;;;;;;61.20;22.57;;;-1.90;99.90;;;;;;5072103;28;20188;-65
2021/12/21 03:03:52;;;;;;;62.13;21.50;;;-1.90;99.90;;;;;;5060036;28;20279;-63
2021/12/21 03:09:28;;;;;;;57.10;20.83;;;-1.90;99.90;;;;;;5070596;28;20298;-64
2021/12/21 03:12:08;;;;;;;54.37;21.03;;;-2.00;99.90;;;;;;5071826;28;20422;-64
2021/12/21 03:14:37;;;;;;;66.53;22.27;;;-2.00;99.90;;;;;;5075125;28;20222;-64
2021/12/21 03:17:07;;;;;;;55.60;21.87;;;-2.00;99.90;;;;;;5055192;28;20685;-64
2021/12/21 03:19:36;;;;;;;61.80;22.07;;;-2.10;99.90;;;;;;5074542;28;20760;-64
2021/12/21 03:22:06;;;;;;;60.57;21.97;;;-2.10;99.90;;;;;;5072417;28;21634;-64
2021/12/21 03:24:36;;;;;;;65.47;22.87;;;-2.10;99.90;;;;;;5051285;28;20188;-64
2021/12/21 03:27:06;;;;;;;70.57;21.67;;;-2.20;99.90;;;;;;5072741;28;20202;-64
2021/12/21 03:29:35;;;;;;;66.97;22.73;;;-2.20;99.90;;;;;;5068865;28;20203;-64
2021/12/21 03:32:04;;;;;;;63.43;22.50;;;-2.20;99.90;;;;;;5069750;28;20223;-64
2021/12/21 03:34:33;;;;;;;58.43;20.90;;;-2.20;99.90;;;;;;5071220;28;20625;-64
2021/12/21 03:37:04;;;;;;;68.03;21.23;;;-2.20;99.90;;;;;;5057253;28;20188;-64
2021/12/21 03:39:32;;;;;;;59.93;22.87;;;-2.30;99.90;;;;;;5075223;28;20223;-64
2021/12/21 03:42:03;;;;;;;61.67;21.97;;;-2.30;99.90;;;;;;5078395;28;20192;-64
2021/12/21 03:44:32;;;;;;;66.13;23.10;;;-2.30;99.90;;;;;;5070405;28;20196;-64
2021/12/21 03:47:01;;;;;;;65.03;22.10;;;-2.30;99.90;;;;;;5070321;28;20200;-64
2021/12/21 03:52:20;;;;;;;60.40;22.70;;;-2.30;99.90;;;;;;5064285;28;20212;-64
2021/12/21 03:54:51;;;;;;;65.07;23.30;;;-2.30;99.90;;;;;;5075209;28;20682;-64
2021/12/21 03:57:21;;;;;;;55.17;21.77;;;-2.30;99.90;;;;;;5073961;28;20192;-64
2021/12/21 03:59:50;;;;;;;61.97;22.30;;;-2.30;99.90;;;;;;5080021;28;20253;-64
2021/12/21 04:02:19;;;;;;;58.90;23.40;;;-2.40;99.90;;;;;;5080446;28;20693;-64
2021/12/21 04:04:49;;;;;;;58.10;22.23;;;-2.50;99.90;;;;;;5053599;28;20696;-64
2021/12/21 04:07:18;;;;;;;63.67;22.30;;;-2.50;99.90;;;;;;5040418;28;20199;-64
2021/12/21 04:09:48;;;;;;;66.80;23.90;;;-2.60;99.90;;;;;;5065331;28;20191;-64
2021/12/21 04:12:18;;;;;;;60.90;22.37;;;-2.60;99.90;;;;;;5074839;28;20222;-64
2021/12/21 04:14:47;;;;;;;57.97;24.10;;;-2.60;99.90;;;;;;5075422;28;20234;-64
2021/12/21 04:17:21;;;;;;;67.57;23.33;;;-2.60;99.90;;;;;;5076489;28;20192;-64
2021/12/21 04:19:51;;;;;;;58.33;21.87;;;-2.60;99.90;;;;;;5078739;28;20698;-64
2021/12/21 04:22:20;;;;;;;64.63;22.70;;;-2.60;99.90;;;;;;5068941;28;20600;-64
2021/12/21 04:24:49;;;;;;;69.00;23.43;;;-2.60;99.90;;;;;;5076079;28;20211;-64
2021/12/21 04:27:18;;;;;;;63.37;22.90;;;-2.60;99.90;;;;;;5077346;28;20557;-64
2021/12/21 04:29:49;;;;;;;61.00;23.03;;;-2.70;99.90;;;;;;5078225;28;20199;-64
2021/12/21 04:32:19;;;;;;;57.77;22.53;;;-2.70;99.90;;;;;;5071211;28;20708;-64
2021/12/21 04:34:49;;;;;;;61.30;23.07;;;-2.70;99.90;;;;;;5075866;28;20891;-64
2021/12/21 04:37:18;;;;;;;68.00;24.67;;;-2.70;99.90;;;;;;5077374;28;20221;-64
2021/12/21 04:39:57;;;;;;;53.90;23.13;;;-2.70;99.90;;;;;;5083556;28;20708;-64
2021/12/21 04:42:26;;;;;;;61.53;24.40;;;-2.70;99.90;;;;;;5072306;28;20206;-64
2021/12/21 04:44:56;;;;;;;64.13;21.80;;;-2.70;99.90;;;;;;5075994;28;20805;-64
2021/12/21 04:47:28;;;;;;;68.17;23.27;;;-2.70;99.90;;;;;;5072139;28;20629;-64
2021/12/21 04:49:56;;;;;;;56.40;23.50;;;-2.70;99.90;;;;;;5074828;28;20203;-64
2021/12/21 04:52:27;;;;;;;71.77;24.23;;;-2.70;99.90;;;;;;5075233;28;20286;-64
2021/12/21 04:54:56;;;;;;;65.10;24.47;;;-2.70;99.90;;;;;;5078175;28;20552;-64
2021/12/21 04:57:25;;;;;;;61.90;22.87;;;-2.60;99.90;;;;;;5072599;28;20196;-64
2021/12/21 04:59:53;;;;;;;72.00;23.67;;;-2.60;99.90;;;;;;5074103;28;20653;-64
2021/12/21 05:02:24;;;;;;;72.93;25.53;;;-2.70;99.90;;;;;;5063650;28;20658;-64
2021/12/21 05:04:53;;;;;;;70.73;25.23;;;-2.70;99.90;;;;;;5078995;28;20195;-64
2021/12/21 05:07:24;;;;;;;67.83;24.10;;;-2.60;99.90;;;;;;5074530;28;20650;-64
2021/12/21 05:09:57;;;;;;;67.90;24.80;;;-2.50;99.90;;;;;;5078668;28;20191;-64
2021/12/21 05:12:26;;;;;;;69.53;24.60;;;-2.60;99.90;;;;;;5057158;28;20758;-64
2021/12/21 05:14:56;;;;;;;71.30;24.73;;;-2.60;99.90;;;;;;5077175;28;20242;-64
2021/12/21 05:17:25;;;;;;;71.17;24.43;;;-2.60;99.90;;;;;;5076070;28;20195;-64
2021/12/21 05:19:54;;;;;;;65.73;24.53;;;-2.60;99.90;;;;;;5074572;28;20603;-64
2021/12/21 05:22:26;;;;;;;65.97;24.47;;;-2.70;99.90;;;;;;5073827;28;20192;-64
2021/12/21 05:24:55;;;;;;;58.67;23.07;;;-2.80;99.90;;;;;;5076069;28;20222;-64
2021/12/21 05:27:24;;;;;;;69.93;22.97;;;-2.80;99.90;;;;;;5080708;28;20265;-64
2021/12/21 05:29:52;;;;;;;57.90;23.00;;;-2.90;99.90;;;;;;5080968;28;20688;-64
2021/12/21 05:32:21;;;;;;;60.20;22.50;;;-2.90;99.90;;;;;;5056537;28;20212;-64
2021/12/21 05:34:52;;;;;;;53.77;22.47;;;-3.00;99.90;;;;;;5074579;28;20208;-64
2021/12/21 05:37:21;;;;;;;66.57;24.13;;;-3.00;99.90;;;;;;5081494;28;20195;-64
2021/12/21 05:39:57;;;;;;;58.53;21.63;;;-3.00;99.90;;;;;;5078542;28;20208;-64
2021/12/21 05:42:26;;;;;;;64.07;22.80;;;-3.10;99.90;;;;;;5071897;28;20184;-64
2021/12/21 05:44:55;;;;;;;71.93;23.43;;;-3.10;99.90;;;;;;5058316;28;20662;-64
2021/12/21 05:47:23;;;;;;;65.50;23.43;;;-3.00;99.90;;;;;;5072116;28;20202;-64
2021/12/21 05:49:54;;;;;;;58.20;22.70;;;-3.00;99.90;;;;;;5070079;28;20738;-64
2021/12/21 05:52:22;;;;;;;70.43;23.00;;;-3.10;99.90;;;;;;5082090;28;21011;-64
2021/12/21 05:54:51;;;;;;;64.70;22.73;;;-3.10;99.90;;;;;;5060140;28;20196;-64
2021/12/21 05:57:24;;;;;;;59.93;22.30;;;-3.00;99.90;;;;;;5082056;28;20207;-64
2021/12/21 05:59:53;;;;;;;64.93;22.83;;;-3.10;99.90;;;;;;5074770;28;20193;-64
2021/12/21 06:02:21;;;;;;;58.33;21.90;;;-3.10;99.90;;;;;;5075796;28;20195;-65
2021/12/21 06:05:29;;;;;;;69.30;24.03;;;-3.10;99.90;;;;;;5076597;28;20684;-64
2021/12/21 06:08:03;;;;;;;69.33;24.33;;;-3.00;99.90;;;;;;5059204;28;20800;-64
2021/12/21 06:10:35;;;;;;;63.97;23.47;;;-2.90;99.90;;;;;;5051302;28;20215;-64
2021/12/21 06:13:28;;;;;;;67.17;25.53;;;-2.80;99.90;;;;;;5071018;28;21174;-64
2021/12/21 06:16:24;;;;;;;60.53;24.07;;;-2.70;99.90;;;;;;5069975;28;20601;-64
2021/12/21 06:27:17;;;;;;;63.33;24.10;;;-2.60;99.90;;;;;;5079127;28;20199;-64
2021/12/21 06:29:49;;;;;;;61.47;23.97;;;-2.70;99.90;;;;;;5077845;28;20207;-65
2021/12/21 06:32:18;;;;;;;67.47;23.47;;;-2.80;99.90;;;;;;5060700;28;20681;-64
2021/12/21 06:34:46;;;;;;;71.50;24.77;;;-2.90;99.90;;;;;;5079807;28;20198;-64
2021/12/21 06:37:17;;;;;;;65.17;24.77;;;-3.00;99.90;;;;;;5076530;28;20194;-65
2021/12/21 06:39:45;;;;;;;60.10;23.63;;;-3.00;99.90;;;;;;5082231;28;20207;-65
2021/12/21 06:42:15;;;;;;;63.93;24.33;;;-3.10;99.90;;;;;;5077110;28;20271;-64
2021/12/21 06:44:47;;;;;;;71.70;23.90;;;-3.10;99.90;;;;;;5092070;28;20200;-64
2021/12/21 06:52:50;;;;;;;65.53;22.67;;;-3.10;99.90;;;;;;5076992;28;20216;-65
2021/12/21 06:55:21;;;;;;;67.80;24.43;;;-3.10;99.90;;;;;;5078636;28;20199;-65
2021/12/21 06:57:49;;;;;;;67.10;24.93;;;-3.20;99.90;;;;;;5079367;28;20198;-64
2021/12/21 07:00:19;;;;;;;64.93;24.07;;;-3.30;99.90;;;;;;5083394;28;20196;-64
2021/12/21 07:02:48;;;;;;;60.37;23.43;;;-3.30;99.90;;;;;;5076888;28;20200;-64
2021/12/21 07:05:17;;;;;;;56.53;22.60;;;-3.30;99.90;;;;;;5075730;28;20651;-64
2021/12/21 07:07:46;;;;;;;59.23;23.67;;;-3.30;99.90;;;;;;5072271;28;20613;-64
2021/12/21 07:10:22;;;;;;;62.63;24.33;;;-3.40;99.90;;;;;;5076159;28;20203;-64
2021/12/21 07:18:30;;;;;;;69.20;23.80;;;-3.40;99.90;;;;;;5056714;28;20191;-64
2021/12/21 07:21:00;;;;;;;53.00;22.47;;;-3.40;99.90;;;;;;5069125;28;20200;-64
2021/12/21 07:23:31;;;;;;;67.77;23.17;;;-3.50;99.90;;;;;;5074360;28;20204;-64
2021/12/21 07:26:02;;;;;;;59.40;22.90;;;-3.50;99.90;;;;;;5070302;28;20338;-64
2021/12/21 07:28:38;;;;;;;57.13;22.10;;;-3.60;99.90;;;;;;5077289;28;20203;-64
2021/12/21 07:31:06;;;;;;;59.43;22.37;;;-3.60;99.90;;;;;;5075047;28;20200;-64
2021/12/21 07:33:35;;;;;;;65.37;23.93;;;-3.60;99.90;;;;;;5075515;28;20663;-65
2021/12/21 07:36:04;;;;;;;65.27;26.33;;;-3.50;99.90;;;;;;5072524;28;20270;-64
2021/12/21 07:38:33;;;;;;;73.60;24.93;;;-3.40;99.90;;;;;;5076664;28;20658;-64
2021/12/21 07:41:03;;;;;;;69.00;26.03;;;-3.30;99.90;;;;;;5075659;28;20215;-65
2021/12/21 07:43:32;;;;;;;62.97;23.33;;;-3.30;99.90;;;;;;5078166;28;20678;-65
2021/12/21 07:46:00;;;;;;;60.87;24.60;;;-3.30;99.90;;;;;;5058228;28;20210;-64
2021/12/21 07:48:29;;;;;;;59.40;22.70;;;-3.30;99.90;;;;;;5058471;28;20303;-64
2021/12/21 07:50:58;;;;;;;59.43;24.13;;;-3.30;99.90;;;;;;5079141;28;20270;-65
2021/12/21 07:53:27;;;;;;;59.50;22.87;;;-3.30;99.90;;;;;;5075312;28;20202;-64
2021/12/21 07:56:01;;;;;;;58.27;21.93;;;-3.30;99.90;;;;;;5088134;28;20195;-64
2021/12/21 07:58:32;;;;;;;71.37;25.50;;;-3.40;99.90;;;;;;5080399;28;20210;-64
2021/12/21 08:01:02;;;;;;;58.83;23.77;;;-3.40;99.90;;;;;;5075957;28;20978;-64
2021/12/21 08:03:32;;;;;;;61.57;23.67;;;-3.40;99.90;;;;;;5082503;28;20233;-64
2021/12/21 08:06:02;;;;;;;65.33;23.13;;;-3.50;99.90;;;;;;5076916;28;20269;-64
2021/12/21 08:08:31;;;;;;;64.07;23.30;;;-3.50;99.90;;;;;;5079729;28;20242;-64
2021/12/21 08:11:14;;;;;;;65.97;24.27;;;-3.50;99.90;;;;;;5079274;28;20199;-64
2021/12/21 08:13:49;;;;;;;66.57;22.43;;;-3.50;99.90;;;;;;5078194;28;20289;-64
2021/12/21 08:16:18;;;;;;;57.60;23.00;;;-3.40;99.90;;;;;;5083573;28;20270;-64
2021/12/21 08:18:47;;;;;;;57.83;23.30;;;-3.40;99.90;;;;;;5081098;28;20196;-64
2021/12/21 08:21:19;;;;;;;56.37;23.23;;;-3.40;99.90;;;;;;5057143;28;20192;-63
2021/12/21 08:23:48;;;;;;;69.10;24.33;;;-3.40;99.90;;;;;;5081242;28;20215;-64
2021/12/21 08:26:17;;;;;;;62.30;23.97;;;-3.30;99.90;;;;;;5072162;28;20542;-64
2021/12/21 08:28:47;;;;;;;77.97;28.30;;;-3.30;99.90;;;;;;5078045;28;20286;-64
2021/12/21 08:31:16;;;;;;;81.83;28.03;;;-3.30;99.90;;;;;;5077019;28;20199;-64
2021/12/21 08:33:45;;;;;;;67.43;28.90;;;-3.30;99.90;;;;;;5061659;28;20195;-64
2021/12/21 08:36:14;;;;;;;68.27;25.93;;;-3.20;99.90;;;;;;5070350;28;20614;-64
2021/12/21 08:38:43;;;;;;;73.93;27.60;;;-3.20;99.90;;;;;;5082118;28;20740;-64
2021/12/21 08:41:12;;;;;;;70.53;27.13;;;-3.20;99.90;;;;;;5079110;28;20869;-64
2021/12/21 08:43:41;;;;;;;61.60;24.23;;;-3.20;99.90;;;;;;5081309;28;20244;-64
2021/12/21 08:46:10;;;;;;;64.67;24.97;;;-3.20;99.90;;;;;;5075289;28;20838;-64
2021/12/21 08:48:39;;;;;;;61.03;24.33;;;-3.10;99.90;;;;;;5073777;28;20207;-65
2021/12/21 08:51:08;;;;;;;68.37;24.83;;;-3.10;99.90;;;;;;5078737;28;20286;-64
2021/12/21 08:53:42;;;;;;;61.70;25.87;;;-3.10;99.90;;;;;;5077876;28;20625;-64
2021/12/21 08:56:10;;;;;;;58.67;25.67;;;-2.90;99.90;;;;;;5061099;28;20206;-64
2021/12/21 08:58:39;;;;;;;66.60;25.37;;;-2.80;99.90;;;;;;5075187;28;20246;-64
2021/12/21 09:01:07;;;;;;;61.93;25.60;;;-2.70;99.90;;;;;;5056311;28;20192;-64
2021/12/21 09:03:38;;;;;;;67.07;26.30;;;-2.60;99.90;;;;;;5081736;28;20235;-64
2021/12/21 09:06:08;;;;;;;66.17;26.53;;;-2.60;99.90;;;;;;5085359;28;20191;-64
2021/12/21 09:08:37;;;;;;;53.70;24.23;;;-2.50;99.90;;;;;;5077700;28;20184;-64
2021/12/21 09:11:05;;;;;;;62.90;26.37;;;-2.50;99.90;;;;;;5074932;28;20658;-64
2021/12/21 09:13:34;;;;;;;64.20;25.87;;;-2.30;99.90;;;;;;5083330;28;20222;-64
2021/12/21 09:16:03;;;;;;;70.10;28.10;;;-2.20;99.90;;;;;;5054241;28;20346;-64
2021/12/21 09:18:32;;;;;;;62.77;26.90;;;-2.00;99.90;;;;;;5074483;28;20611;-64
2021/12/21 09:21:07;;;;;;;71.73;28.20;;;-1.80;99.90;;;;;;5075770;28;20203;-64
2021/12/21 09:23:35;;;;;;;64.47;28.77;;;-1.70;99.90;;;;;;5060061;28;20274;-64
2021/12/21 09:26:04;;;;;;;66.60;27.67;;;-1.50;99.90;;;;;;5080887;28;20230;-64
2021/12/21 09:28:33;;;;;;;68.90;28.50;;;-1.40;99.90;;;;;;5073490;28;20724;-64
2021/12/21 09:31:01;;;;;;;75.93;29.57;;;-1.20;99.90;;;;;;5072698;28;20769;-64
2021/12/21 09:33:30;;;;;;;75.77;29.63;;;-1.00;99.90;;;;;;5074978;28;20206;-64
2021/12/21 09:35:58;;;;;;;65.83;29.77;;;-0.90;99.90;;;;;;5076080;28;20223;-64
2021/12/21 09:38:28;;;;;;;67.80;30.00;;;-0.70;99.90;;;;;;5080792;28;20187;-64
2021/12/21 09:40:57;;;;;;;66.23;30.47;;;-0.60;99.90;;;;;;5081132;28;20232;-64
2021/12/21 09:43:26;;;;;;;71.27;31.53;;;-0.50;99.90;;;;;;5076744;28;20205;-64
2021/12/21 09:45:55;;;;;;;65.43;29.87;;;-0.40;99.90;;;;;;5076570;28;20237;-63
2021/12/21 09:48:25;;;;;;;68.87;31.00;;;-0.30;99.90;;;;;;5075205;28;20342;-64
2021/12/21 09:50:53;;;;;;;67.07;29.13;;;-0.20;99.90;;;;;;5076308;28;20244;-63
2021/12/21 09:53:23;;;;;;;60.63;29.53;;;0.00;99.90;;;;;;5079941;28;20222;-63
2021/12/21 09:55:53;;;;;;;66.23;30.77;;;0.20;99.90;;;;;;5075893;28;20614;-64
2021/12/21 09:58:21;;;;;;;67.87;29.27;;;0.30;99.90;;;;;;5076957;28;20232;-63
2021/12/21 10:00:50;;;;;;;78.50;38.10;;;0.40;99.90;;;;;;5072645;28;20254;-63
2021/12/21 10:03:19;;;;;;;58.70;27.40;;;0.60;99.90;;;;;;5059552;28;20243;-64
2021/12/21 10:05:48;;;;;;;44.63;23.93;;;0.70;99.90;;;;;;5083357;28;20252;-63
2021/12/21 10:08:18;;;;;;;44.80;22.80;;;0.80;99.90;;;;;;5075896;28;20278;-63
2021/12/21 10:10:49;;;;;;;43.03;22.67;;;0.80;99.90;;;;;;5072253;28;20198;-63
2021/12/21 10:13:21;;;;;;;44.80;20.63;;;1.00;99.90;;;;;;5078652;28;20216;-63
2021/12/21 10:15:51;;;;;;;41.03;20.13;;;1.00;99.90;;;;;;5074308;28;20226;-64
2021/12/21 10:18:23;;;;;;;35.83;18.87;;;1.20;99.90;;;;;;5077616;28;20249;-63
2021/12/21 10:20:53;;;;;;;48.23;19.63;;;1.20;99.90;;;;;;5075010;28;20279;-64
2021/12/21 10:23:24;;;;;;;39.03;18.40;;;1.20;99.90;;;;;;5074313;28;20239;-64
2021/12/21 10:25:57;;;;;;;43.93;17.97;;;1.40;99.90;;;;;;5076051;28;20204;-64
2021/12/21 10:28:28;;;;;;;40.60;17.73;;;1.50;99.90;;;;;;5079535;28;20199;-63
2021/12/21 10:30:58;;;;;;;30.67;15.87;;;1.70;99.90;;;;;;5075938;28;20220;-64
2021/12/21 10:33:28;;;;;;;33.90;17.23;;;1.90;99.90;;;;;;5079023;28;20187;-64
2021/12/21 10:35:59;;;;;;;32.17;16.63;;;2.10;99.90;;;;;;5077443;28;20624;-64
2021/12/21 10:38:33;;;;;;;33.77;15.63;;;2.20;99.90;;;;;;5081049;28;20270;-64
2021/12/21 10:41:10;;;;;;;36.00;16.17;;;2.30;99.90;;;;;;5077323;28;20258;-64
2021/12/21 10:43:41;;;;;;;36.13;16.23;;;2.40;99.90;;;;;;5072308;28;20217;-64
2021/12/21 10:46:11;;;;;;;32.90;16.53;;;2.50;99.90;;;;;;5075840;28;20271;-63
2021/12/21 10:48:47;;;;;;;35.37;15.90;;;2.40;99.90;;;;;;5076104;28;20224;-64
2021/12/21 10:51:17;;;;;;;38.53;16.77;;;2.30;99.90;;;;;;5075161;28;20214;-63
2021/12/21 10:53:49;;;;;;;33.40;16.87;;;2.30;99.90;;;;;;5056318;28;20688;-64
2021/12/21 10:56:18;;;;;;;33.97;16.70;;;2.40;99.90;;;;;;5076206;28;20196;-63
2021/12/21 10:58:48;;;;;;;38.30;16.87;;;2.60;99.90;;;;;;5073677;28;20670;-63
2021/12/21 11:01:44;;;;;;;33.47;15.77;;;2.80;99.90;;;;;;5080808;28;20310;-64
2021/12/21 11:04:16;;;;;;;31.97;16.00;;;3.10;99.90;;;;;;5075218;28;20567;-63
2021/12/21 11:06:49;;;;;;;31.80;15.90;;;3.20;99.90;;;;;;5077125;28;20204;-64
2021/12/21 11:09:28;;;;;;;35.13;15.70;;;3.30;99.90;;;;;;5075419;28;20271;-64
2021/12/21 11:11:58;;;;;;;28.03;14.73;;;3.20;99.90;;;;;;5073891;28;20218;-64
2021/12/21 11:14:31;;;;;;;29.90;14.83;;;3.30;99.90;;;;;;5076644;28;20706;-64
2021/12/21 11:17:00;;;;;;;31.23;15.23;;;3.40;99.90;;;;;;5084813;28;20203;-64
2021/12/21 11:19:29;;;;;;;26.80;15.03;;;3.60;99.90;;;;;;5077021;28;20677;-64
2021/12/21 11:21:58;;;;;;;31.93;13.93;;;3.60;99.90;;;;;;5083349;28;20641;-65
2021/12/21 11:24:29;;;;;;;28.00;14.60;;;3.80;99.90;;;;;;5076381;28;20219;-64
2021/12/21 11:26:57;;;;;;;30.10;14.63;;;3.90;99.90;;;;;;5075558;28;20223;-64
2021/12/21 11:29:32;;;;;;;29.53;14.33;;;4.00;99.90;;;;;;5074639;28;20245;-64
2021/12/21 11:32:04;;;;;;;31.07;14.40;;;4.10;99.90;;;;;;5057857;28;20249;-64
2021/12/21 11:34:36;;;;;;;36.27;14.30;;;4.00;99.90;;;;;;5078291;28;20195;-64
2021/12/21 11:37:21;;;;;;;32.87;14.57;;;3.90;99.90;;;;;;5078071;28;20632;-64
2021/12/21 11:39:49;;;;;;;33.53;15.17;;;4.00;99.90;;;;;;5076907;28;20279;-64
2021/12/21 11:42:27;;;;;;;28.30;14.07;;;4.10;99.90;;;;;;5076587;28;20282;-64
2021/12/21 11:45:02;;;;;;;34.20;14.37;;;4.00;99.90;;;;;;5079170;28;20247;-64
2021/12/21 11:47:35;;;;;;;24.50;13.80;;;4.10;99.90;;;;;;5073806;28;20199;-64
2021/12/21 11:50:07;;;;;;;22.83;12.97;;;4.30;99.90;;;;;;5055047;28;20249;-64
2021/12/21 11:52:46;;;;;;;31.83;14.87;;;4.30;99.90;;;;;;5074345;28;20729;-64
2021/12/21 11:55:16;;;;;;;28.17;13.73;;;4.40;99.90;;;;;;5056860;28;20191;-64
2021/12/21 11:57:47;;;;;;;39.73;14.00;;;4.30;99.90;;;;;;5075738;28;20227;-64
2021/12/21 12:00:20;;;;;;;28.83;14.00;;;4.10;99.90;;;;;;5078966;28;20243;-63
2021/12/21 12:03:12;;;;;;;30.77;13.60;;;4.00;99.90;;;;;;5078624;28;20200;-64
2021/12/21 12:06:18;;;;;;;25.97;13.70;;;4.10;99.90;;;;;;5076300;28;20586;-64
2021/12/21 12:08:50;;;;;;;25.53;13.07;;;4.20;99.90;;;;;;5058823;28;20275;-64
2021/12/21 12:11:25;;;;;;;29.53;13.13;;;4.30;99.90;;;;;;5062827;28;20612;-64
2021/12/21 12:14:05;;;;;;;24.03;12.70;;;4.30;99.90;;;;;;5068255;28;20246;-64
2021/12/21 12:16:46;;;;;;;26.17;13.10;;;4.30;99.90;;;;;;5076397;28;20202;-64
2021/12/21 12:19:17;;;;;;;32.50;12.97;;;4.30;99.90;;;;;;5076370;28;20227;-64
2021/12/21 12:21:56;;;;;;;25.13;11.20;;;4.40;99.90;;;;;;5077024;28;20257;-64
2021/12/21 12:24:27;;;;;;;29.27;12.10;;;4.60;99.90;;;;;;5059052;28;20226;-64
2021/12/21 12:27:00;;;;;;;25.37;12.93;;;4.70;99.90;;;;;;5064263;28;20204;-64
2021/12/21 12:29:45;;;;;;;25.17;11.77;;;4.60;99.90;;;;;;5084292;28;20198;-64
2021/12/21 12:32:16;;;;;;;26.93;12.97;;;4.70;99.90;;;;;;5079020;28;20766;-64
2021/12/21 12:35:02;;;;;;;26.57;12.13;;;4.80;99.90;;;;;;5085012;28;20195;-64
2021/12/21 12:37:30;;;;;;;27.13;13.13;;;4.80;99.90;;;;;;5070494;28;20215;-64
2021/12/21 12:40:07;;;;;;;23.43;11.37;;;4.70;99.90;;;;;;5076493;28;20231;-64
2021/12/21 12:42:36;;;;;;;20.40;12.47;;;4.80;99.90;;;;;;5075331;28;20720;-64
2021/12/21 12:45:10;;;;;;;27.90;13.30;;;4.80;99.90;;;;;;5073361;28;20211;-65
2021/12/21 12:47:44;;;;;;;27.50;13.00;;;5.00;99.90;;;;;;5075713;28;20278;-65
2021/12/21 12:50:18;;;;;;;32.40;13.30;;;5.10;99.90;;;;;;5072415;28;20534;-64
2021/12/21 12:52:52;;;;;;;22.80;11.60;;;5.00;99.90;;;;;;5084256;28;20250;-65
2021/12/21 12:55:21;;;;;;;23.23;11.73;;;5.00;99.90;;;;;;5075576;28;20197;-64
2021/12/21 12:57:54;;;;;;;20.27;11.33;;;4.90;99.90;;;;;;5079625;28;20274;-65
2021/12/21 13:00:27;;;;;;;17.90;10.77;;;4.80;99.90;;;;;;5081568;28;20279;-64
2021/12/21 13:03:02;;;;;;;24.80;11.03;;;4.70;99.90;;;;;;5076903;28;20204;-65
2021/12/21 13:05:37;;;;;;;18.40;10.00;;;4.60;99.90;;;;;;5073873;28;20281;-65
2021/12/21 13:08:11;;;;;;;22.70;11.03;;;4.70;99.90;;;;;;5091641;28;20200;-64
2021/12/21 13:10:41;;;;;;;20.57;11.07;;;4.70;99.90;;;;;;5077640;28;20743;-65
2021/12/21 13:13:09;;;;;;;26.07;11.20;;;4.60;99.90;;;;;;5078981;28;20227;-64
2021/12/21 13:15:41;;;;;;;17.13;10.33;;;4.70;99.90;;;;;;5074900;28;20277;-65
2021/12/21 13:18:16;;;;;;;24.53;10.83;;;4.70;99.90;;;;;;5078867;28;20200;-65
2021/12/21 13:20:48;;;;;;;18.50;10.10;;;4.80;99.90;;;;;;5078484;28;20207;-65
2021/12/21 13:23:20;;;;;;;16.37;10.43;;;4.70;99.90;;;;;;5082800;28;20306;-64
2021/12/21 13:26:01;;;;;;;18.20;10.57;;;4.60;99.90;;;;;;5073301;28;20242;-65